Aviation Digital Data Service (ADDS)

Output produced by METARs form (0712 UTC 23 November 2014)
found at http://aviationweather.gov/adds/metars/
 
KPHL 230540Z 2306/2412 23010KT P6SM OVC110 
     FM231200 20006KT P6SM SCT100 
     FM240000 16006KT P6SM OVC050 
     FM240300 15006KT 5SM -RA BR OVC020 
     FM240600 14007KT 5SM -RA BR OVC007 WS020/16045KT